PAIL

Iliamna Airport

Airport
ICAO code
PAIL
IATA Code
ILI
Summary
ICAO Region
NAM
ICAO Territory
Location

, Alaska

Serving
Iliamna
Elevation
192 ft
Coordinates
59° 45' 16" N , 154° 54' 39" W
Metar
PAIL 200653Z 03003KT CLR 13/10 A3017 RMK AO2 SLP217 T01330100 $

Runways

Designator Length Width Surface Rops
N/S 881 122 WATER No/No
E/W 914 122 WATER-E No/No
17/35 1463 30 ASP Yes/Yes
7/25 1551 30 ASP Yes/Yes

Airport map

Aerial View

SKYbrary Partners:

Safety knowledge contributed by: